Time;durP1;ratioP1;P1;durP2;ratioP2;P2;SDS_P1;SDS_P2;PMS_P1;PMS_P2;Temp;Humidity;BMP_temperature;BMP_pressure;BME280_temperature;BME280_humidity;BME280_pressure;Samples;Min_cycle;Max_cycle;Signal;HPM_P1;HPM_P2
2023/05/21 00:02:53;;;;;;;32.40;24.17;;;;;;;;;;9503387;30;20086;-73
2023/05/21 00:07:47;;;;;;;33.75;24.05;;;;;;;;;;9481337;30;20395;-75
2023/05/21 00:12:40;;;;;;;32.05;24.77;;;;;;;;;;9499528;30;20071;-76
2023/05/21 00:17:35;;;;;;;31.67;24.92;;;;;;;;;;9515078;30;20052;-74
2023/05/21 00:22:28;;;;;;;35.72;24.95;;;;;;;;;;9502818;30;20067;-74
2023/05/21 00:27:22;;;;;;;34.10;25.77;;;;;;;;;;9515596;30;20067;-74
2023/05/21 00:32:16;;;;;;;38.50;26.50;;;;;;;;;;9516112;30;20094;-74
2023/05/21 00:37:09;;;;;;;33.42;24.48;;;;;;;;;;9503010;30;20056;-77
2023/05/21 00:42:02;;;;;;;36.20;28.17;;;;;;;;;;9508477;30;20091;-73
2023/05/21 00:46:57;;;;;;;38.90;27.13;;;;;;;;;;9522241;30;20404;-75
2023/05/21 00:51:51;;;;;;;39.05;28.42;;;;;;;;;;9508886;30;20099;-76
2023/05/21 00:56:45;;;;;;;36.53;27.83;;;;;;;;;;9508222;30;20412;-76
2023/05/21 01:01:39;;;;;;;41.28;28.17;;;;;;;;;;9508284;30;20056;-73
2023/05/21 01:06:33;;;;;;;39.97;27.55;;;;;;;;;;9507545;30;20091;-73
2023/05/21 01:11:47;;;;;;;36.10;26.13;;;;;;;;;;9508188;30;20138;-73
2023/05/21 01:16:41;;;;;;;37.33;26.95;;;;;;;;;;9507149;30;20060;-73
2023/05/21 01:21:36;;;;;;;40.35;28.75;;;;;;;;;;9520903;30;20052;-73
2023/05/21 01:26:32;;;;;;;48.28;29.77;;;;;;;;;;9491017;30;20061;-73
2023/05/21 01:31:34;;;;;;;50.92;32.17;;;;;;;;;;9500359;30;20060;-74
2023/05/21 01:36:33;;;;;;;49.00;29.50;;;;;;;;;;9506102;30;20060;-77
2023/05/21 01:41:28;;;;;;;46.60;30.38;;;;;;;;;;9493165;30;20059;-76
2023/05/21 01:46:24;;;;;;;45.38;28.58;;;;;;;;;;9507208;30;20063;-76
2023/05/21 01:51:17;;;;;;;51.33;31.70;;;;;;;;;;9505703;30;20067;-75
2023/05/21 01:56:11;;;;;;;46.90;30.27;;;;;;;;;;9505681;30;20055;-75
2023/05/21 02:01:04;;;;;;;46.08;30.05;;;;;;;;;;9505760;30;20056;-75
2023/05/21 02:05:58;;;;;;;47.47;29.63;;;;;;;;;;9505714;30;20463;-75
2023/05/21 02:10:51;;;;;;;45.63;29.80;;;;;;;;;;9505136;30;20106;-76
2023/05/21 02:15:44;;;;;;;49.67;31.65;;;;;;;;;;9506673;30;20080;-75
2023/05/21 02:20:38;;;;;;;50.80;30.80;;;;;;;;;;9519368;30;20064;-75
2023/05/21 02:25:31;;;;;;;49.08;32.22;;;;;;;;;;9506795;30;20048;-75
2023/05/21 02:30:25;;;;;;;46.15;31.00;;;;;;;;;;9504268;30;20072;-75
2023/05/21 02:35:18;;;;;;;50.97;33.03;;;;;;;;;;9505944;30;20405;-76
2023/05/21 02:40:11;;;;;;;51.45;32.92;;;;;;;;;;9495771;30;20060;-75
2023/05/21 02:45:11;;;;;;;53.40;32.97;;;;;;;;;;9504527;30;20106;-76
2023/05/21 02:50:07;;;;;;;51.78;31.15;;;;;;;;;;9503821;30;20075;-75
2023/05/21 02:55:08;;;;;;;45.67;28.55;;;;;;;;;;9505713;30;20052;-75
2023/05/21 03:00:02;;;;;;;46.28;30.95;;;;;;;;;;9503151;30;20056;-76
2023/05/21 03:04:57;;;;;;;45.80;28.98;;;;;;;;;;9503707;30;20504;-75
2023/05/21 03:09:50;;;;;;;49.13;29.10;;;;;;;;;;9504769;30;20056;-75
2023/05/21 03:14:45;;;;;;;45.50;31.42;;;;;;;;;;9503855;30;20052;-79
2023/05/21 03:19:39;;;;;;;42.47;28.42;;;;;;;;;;9503974;30;20076;-77
2023/05/21 03:24:32;;;;;;;42.78;25.50;;;;;;;;;;9504553;30;20113;-77
2023/05/21 03:29:27;;;;;;;41.22;25.33;;;;;;;;;;9502993;30;20110;-74
2023/05/21 03:34:20;;;;;;;34.70;25.05;;;;;;;;;;9500747;30;20527;-72
2023/05/21 03:39:14;;;;;;;30.52;21.30;;;;;;;;;;9503422;30;20106;-72
2023/05/21 03:44:08;;;;;;;36.72;22.10;;;;;;;;;;9502800;30;20044;-72
2023/05/21 03:49:13;;;;;;;33.88;19.88;;;;;;;;;;9500942;30;20521;-74
2023/05/21 03:54:07;;;;;;;29.20;20.30;;;;;;;;;;9501706;30;20063;-75
2023/05/21 03:59:02;;;;;;;35.15;21.60;;;;;;;;;;9503325;30;20072;-77
2023/05/21 04:03:56;;;;;;;28.63;20.25;;;;;;;;;;9502066;30;20064;-71
2023/05/21 04:08:51;;;;;;;33.58;20.42;;;;;;;;;;9501865;30;20052;-75
2023/05/21 04:13:46;;;;;;;30.55;20.92;;;;;;;;;;9507501;30;20427;-76
2023/05/21 04:18:41;;;;;;;26.65;19.38;;;;;;;;;;9510319;30;20060;-77
2023/05/21 04:23:39;;;;;;;34.88;22.75;;;;;;;;;;9509350;30;20056;-78
2023/05/21 04:28:41;;;;;;;35.80;22.33;;;;;;;;;;9509270;30;20139;-76
2023/05/21 04:33:34;;;;;;;36.63;22.55;;;;;;;;;;9507350;30;20552;-76
2023/05/21 04:38:28;;;;;;;34.33;22.35;;;;;;;;;;9509542;30;20067;-76
2023/05/21 04:43:24;;;;;;;35.72;22.20;;;;;;;;;;9493355;30;20544;-73
2023/05/21 04:48:23;;;;;;;33.35;22.73;;;;;;;;;;9507679;30;20064;-74
2023/05/21 04:53:16;;;;;;;33.08;22.38;;;;;;;;;;9507894;30;20428;-74
2023/05/21 04:58:10;;;;;;;31.02;20.58;;;;;;;;;;9508204;30;20067;-75
2023/05/21 05:03:04;;;;;;;29.58;19.10;;;;;;;;;;9508226;30;20470;-75
2023/05/21 05:07:57;;;;;;;28.00;18.17;;;;;;;;;;9507294;30;20114;-73
2023/05/21 05:12:50;;;;;;;25.98;19.08;;;;;;;;;;9506895;30;20471;-74
2023/05/21 05:17:46;;;;;;;26.42;19.30;;;;;;;;;;9507400;30;20087;-74
2023/05/21 05:22:40;;;;;;;25.13;17.58;;;;;;;;;;9506265;30;20105;-73
2023/05/21 05:27:34;;;;;;;27.17;18.23;;;;;;;;;;9506037;30;20060;-72
2023/05/21 05:32:32;;;;;;;30.10;19.02;;;;;;;;;;9507319;30;20121;-78
2023/05/21 05:37:28;;;;;;;26.60;17.93;;;;;;;;;;9507711;30;20097;-75
2023/05/21 05:42:21;;;;;;;31.77;20.35;;;;;;;;;;9506882;30;20052;-75
2023/05/21 05:47:16;;;;;;;27.15;19.83;;;;;;;;;;9506389;30;20056;-73
2023/05/21 05:52:09;;;;;;;27.00;19.90;;;;;;;;;;9508495;30;20052;-76
2023/05/21 05:57:03;;;;;;;26.65;19.55;;;;;;;;;;9507907;30;20143;-78
2023/05/21 06:01:59;;;;;;;29.63;19.08;;;;;;;;;;9520713;30;20090;-76
2023/05/21 06:06:53;;;;;;;22.83;16.77;;;;;;;;;;9505510;30;20553;-73
2023/05/21 06:11:46;;;;;;;24.13;18.42;;;;;;;;;;9498444;30;20056;-73
2023/05/21 06:16:39;;;;;;;26.25;17.55;;;;;;;;;;9496167;30;20045;-66
2023/05/21 06:21:33;;;;;;;23.05;17.40;;;;;;;;;;9497235;30;20049;-67
2023/05/21 06:26:29;;;;;;;24.55;17.08;;;;;;;;;;9506822;30;20055;-69
2023/05/21 06:31:24;;;;;;;22.23;17.20;;;;;;;;;;9509588;30;20212;-69
2023/05/21 06:36:18;;;;;;;24.30;18.02;;;;;;;;;;9498259;30;20428;-68
2023/05/21 06:41:12;;;;;;;25.27;17.90;;;;;;;;;;9495899;30;20529;-68
2023/05/21 06:46:16;;;;;;;23.55;17.75;;;;;;;;;;9512465;30;20063;-68
2023/05/21 06:51:09;;;;;;;26.40;19.02;;;;;;;;;;9511754;30;20515;-68
2023/05/21 06:56:03;;;;;;;25.58;19.27;;;;;;;;;;9514505;30;20064;-68
2023/05/21 07:01:03;;;;;;;23.08;17.98;;;;;;;;;;9499850;30;20083;-64
2023/05/21 07:05:57;;;;;;;24.15;18.65;;;;;;;;;;9499930;30;20528;-78
2023/05/21 07:10:52;;;;;;;22.13;18.40;;;;;;;;;;9496257;30;20455;-69
2023/05/21 07:15:48;;;;;;;22.90;18.15;;;;;;;;;;9490446;30;20496;-69
2023/05/21 07:20:41;;;;;;;23.05;16.58;;;;;;;;;;9510232;30;20056;-69
2023/05/21 07:25:39;;;;;;;21.65;16.20;;;;;;;;;;9514479;30;20563;-68
2023/05/21 07:30:32;;;;;;;22.58;15.73;;;;;;;;;;9496067;30;20055;-68
2023/05/21 07:35:28;;;;;;;20.02;14.68;;;;;;;;;;9515796;30;20063;-68
2023/05/21 07:40:21;;;;;;;16.70;12.77;;;;;;;;;;9513281;30;20139;-73
2023/05/21 07:45:14;;;;;;;16.50;13.75;;;;;;;;;;9492951;30;20060;-70
2023/05/21 07:50:11;;;;;;;18.63;13.55;;;;;;;;;;9499485;30;20084;-67
2023/05/21 07:55:05;;;;;;;16.40;14.07;;;;;;;;;;9496580;30;20067;-69
2023/05/21 08:00:00;;;;;;;15.18;12.63;;;;;;;;;;9495157;30;20138;-63
2023/05/21 08:04:56;;;;;;;16.73;13.27;;;;;;;;;;9497080;30;20068;-70
2023/05/21 08:09:50;;;;;;;17.85;12.70;;;;;;;;;;9489528;30;20421;-67
2023/05/21 08:14:44;;;;;;;14.90;12.40;;;;;;;;;;9496814;30;20056;-64
2023/05/21 08:19:40;;;;;;;14.88;12.68;;;;;;;;;;9508022;30;20056;-64
2023/05/21 08:24:34;;;;;;;13.63;12.10;;;;;;;;;;9491487;30;20056;-63
2023/05/21 08:29:29;;;;;;;15.23;12.30;;;;;;;;;;9513051;30;20045;-64
2023/05/21 08:34:22;;;;;;;16.25;12.68;;;;;;;;;;9497644;30;20095;-64
2023/05/21 08:39:26;;;;;;;16.60;12.48;;;;;;;;;;9499212;30;20056;-64
2023/05/21 08:44:21;;;;;;;15.30;12.52;;;;;;;;;;9493579;30;20062;-64
2023/05/21 08:49:16;;;;;;;15.32;11.05;;;;;;;;;;9489342;30;20055;-64
2023/05/21 08:54:10;;;;;;;15.63;13.10;;;;;;;;;;9495773;30;20060;-65
2023/05/21 08:59:03;;;;;;;13.60;11.57;;;;;;;;;;9482211;30;20083;-64
2023/05/21 09:04:01;;;;;;;16.05;12.18;;;;;;;;;;9485333;30;20155;-64
2023/05/21 09:09:27;;;;;;;13.68;12.30;;;;;;;;;;9498428;30;20063;-64
2023/05/21 09:14:21;;;;;;;12.53;10.80;;;;;;;;;;9507809;30;20056;-64
2023/05/21 09:19:30;;;;;;;13.85;11.30;;;;;;;;;;9517437;30;20581;-63
2023/05/21 09:24:29;;;;;;;14.68;10.27;;;;;;;;;;9515822;30;20704;-64
2023/05/21 09:29:25;;;;;;;;;;;;;;;;;;9495586;30;20060;-65
2023/05/21 09:34:20;;;;;;;10.85;9.68;;;;;;;;;;9517121;30;19983;-65
2023/05/21 09:39:27;;;;;;;11.30;10.20;;;;;;;;;;9503915;30;20064;-79
2023/05/21 09:44:25;;;;;;;13.93;11.40;;;;;;;;;;9507972;30;20056;-66
2023/05/21 09:49:26;;;;;;;13.60;11.07;;;;;;;;;;9500665;30;20139;-65
2023/05/21 09:54:21;;;;;;;12.45;9.50;;;;;;;;;;9506840;30;20063;-65
2023/05/21 09:59:15;;;;;;;10.90;9.75;;;;;;;;;;9502513;30;20540;-65
2023/05/21 10:04:09;;;;;;;11.30;9.95;;;;;;;;;;9502402;30;20448;-65
2023/05/21 10:09:06;;;;;;;11.27;9.48;;;;;;;;;;9498758;30;20045;-69
2023/05/21 10:14:21;;;;;;;13.38;9.80;;;;;;;;;;9514958;30;20498;-66
2023/05/21 10:19:15;;;;;;;12.07;10.63;;;;;;;;;;9494062;30;20087;-67
2023/05/21 10:24:08;;;;;;;15.30;10.35;;;;;;;;;;9503024;30;20064;-66
2023/05/21 10:29:03;;;;;;;10.60;9.20;;;;;;;;;;9500641;30;20072;-68
2023/05/21 10:33:56;;;;;;;9.90;8.93;;;;;;;;;;9499900;30;20071;-68
2023/05/21 10:38:49;;;;;;;12.73;9.90;;;;;;;;;;9497396;30;20109;-68
2023/05/21 10:43:50;;;;;;;11.57;10.23;;;;;;;;;;9505457;30;20088;-68
2023/05/21 10:49:03;;;;;;;12.27;9.25;;;;;;;;;;9511918;30;20055;-68
2023/05/21 10:54:28;;;;;;;15.02;10.85;;;;;;;;;;9498374;30;20416;-68
2023/05/21 10:59:42;;;;;;;10.68;9.68;;;;;;;;;;9480762;30;20048;-70
2023/05/21 11:04:38;;;;;;;9.90;8.55;;;;;;;;;;9497474;30;20067;-66
2023/05/21 11:09:32;;;;;;;;;;;;;;;;;;9496260;30;20180;-69
2023/05/21 11:14:25;;;;;;;10.38;9.18;;;;;;;;;;9495297;30;20434;-69
2023/05/21 11:19:19;;;;;;;9.85;8.85;;;;;;;;;;9495524;30;20552;-68
2023/05/21 11:24:17;;;;;;;9.88;8.35;;;;;;;;;;9497088;30;20135;-68
2023/05/21 11:29:11;;;;;;;10.30;9.30;;;;;;;;;;9503111;30;20578;-67
2023/05/21 11:34:28;;;;;;;10.63;8.32;;;;;;;;;;9497507;29;20068;-67
2023/05/21 11:39:24;;;;;;;11.13;8.98;;;;;;;;;;9501549;30;20066;-66
2023/05/21 11:44:40;;;;;;;11.77;8.38;;;;;;;;;;9493056;30;20055;-65
2023/05/21 11:49:35;;;;;;;9.90;8.90;;;;;;;;;;9495809;30;20055;-68
2023/05/21 11:54:32;;;;;;;8.85;7.82;;;;;;;;;;9521653;30;20087;-69
2023/05/21 11:59:26;;;;;;;9.82;8.00;;;;;;;;;;9500162;30;20056;-69
2023/05/21 12:04:21;;;;;;;9.13;7.75;;;;;;;;;;9494727;30;20163;-69
2023/05/21 12:09:15;;;;;;;8.88;7.95;;;;;;;;;;9495193;30;20052;-69
2023/05/21 12:14:29;;;;;;;10.45;9.23;;;;;;;;;;9509220;30;20059;-70
2023/05/21 12:19:22;;;;;;;11.48;8.27;;;;;;;;;;9493195;30;20090;-70
2023/05/21 12:24:16;;;;;;;9.40;7.55;;;;;;;;;;9500586;30;20057;-69
2023/05/21 12:29:09;;;;;;;9.57;7.22;;;;;;;;;;9498490;29;20091;-70
2023/05/21 12:34:04;;;;;;;15.85;8.20;;;;;;;;;;9498120;30;20095;-69
2023/05/21 12:38:57;;;;;;;8.20;7.35;;;;;;;;;;9496395;30;20102;-69
2023/05/21 12:43:51;;;;;;;10.15;8.07;;;;;;;;;;9497693;30;20056;-68
2023/05/21 12:49:03;;;;;;;8.52;7.70;;;;;;;;;;9498318;30;20663;-68
2023/05/21 12:53:56;;;;;;;8.05;7.28;;;;;;;;;;9487407;30;20076;-70
2023/05/21 12:58:50;;;;;;;9.07;8.02;;;;;;;;;;9500463;30;20926;-67
2023/05/21 13:03:43;;;;;;;10.45;7.88;;;;;;;;;;9505974;30;20466;-74
2023/05/21 13:08:37;;;;;;;9.40;6.95;;;;;;;;;;9496478;30;20060;-73
2023/05/21 13:13:30;;;;;;;10.40;6.38;;;;;;;;;;9501728;30;20064;-72
2023/05/21 13:18:23;;;;;;;9.60;7.07;;;;;;;;;;9509108;30;20056;-70
2023/05/21 13:23:16;;;;;;;8.35;7.55;;;;;;;;;;9506289;30;20067;-69
2023/05/21 13:28:13;;;;;;;7.10;6.22;;;;;;;;;;9497647;29;20044;-69
2023/05/21 13:33:07;;;;;;;9.68;7.40;;;;;;;;;;9508705;30;20071;-69
2023/05/21 13:38:00;;;;;;;7.18;6.47;;;;;;;;;;9507821;30;20083;-69
2023/05/21 13:42:55;;;;;;;11.07;7.43;;;;;;;;;;9500332;30;20084;-69
2023/05/21 13:47:48;;;;;;;7.82;7.05;;;;;;;;;;9504525;30;20060;-68
2023/05/21 13:52:42;;;;;;;9.45;8.10;;;;;;;;;;9505612;29;20095;-70
2023/05/21 13:57:36;;;;;;;12.48;9.65;;;;;;;;;;9505285;30;20063;-70
2023/05/21 14:02:29;;;;;;;9.70;8.40;;;;;;;;;;9504981;30;20056;-68
2023/05/21 14:07:23;;;;;;;10.15;8.30;;;;;;;;;;9505331;30;20057;-68
2023/05/21 14:12:18;;;;;;;9.48;8.48;;;;;;;;;;9503982;30;20072;-68
2023/05/21 14:17:12;;;;;;;11.88;9.00;;;;;;;;;;9505741;30;20056;-70
2023/05/21 14:22:06;;;;;;;9.05;8.18;;;;;;;;;;9499984;30;20544;-67
2023/05/21 14:27:00;;;;;;;10.63;8.48;;;;;;;;;;9495106;30;20048;-70
2023/05/21 14:31:54;;;;;;;10.52;7.45;;;;;;;;;;9501736;30;20059;-70
2023/05/21 14:36:48;;;;;;;9.88;8.10;;;;;;;;;;9501541;30;20381;-71
2023/05/21 14:41:42;;;;;;;9.02;7.13;;;;;;;;;;9493501;30;20067;-70
2023/05/21 14:46:35;;;;;;;13.13;7.90;;;;;;;;;;9497527;30;20056;-70
2023/05/21 14:51:30;;;;;;;7.95;6.70;;;;;;;;;;9499633;30;20135;-71
2023/05/21 14:56:26;;;;;;;8.27;6.82;;;;;;;;;;9501308;30;20056;-71
2023/05/21 15:01:19;;;;;;;7.75;6.82;;;;;;;;;;9505568;30;20448;-71
2023/05/21 15:06:13;;;;;;;7.00;6.30;;;;;;;;;;9499396;30;20756;-71
2023/05/21 15:11:08;;;;;;;9.77;7.93;;;;;;;;;;9500748;30;20052;-72
2023/05/21 15:16:03;;;;;;;8.23;7.43;;;;;;;;;;9507630;30;20082;-69
2023/05/21 15:20:57;;;;;;;9.25;7.18;;;;;;;;;;9493437;30;20057;-69
2023/05/21 15:25:50;;;;;;;9.25;7.03;;;;;;;;;;9496916;30;20097;-71
2023/05/21 15:30:44;;;;;;;10.85;7.80;;;;;;;;;;9490471;30;20146;-72
2023/05/21 15:35:37;;;;;;;8.35;6.70;;;;;;;;;;9484805;30;20055;-69
2023/05/21 15:40:31;;;;;;;10.27;7.25;;;;;;;;;;9487826;30;20595;-69
2023/05/21 15:45:24;;;;;;;8.90;6.90;;;;;;;;;;9489923;30;20113;-71
2023/05/21 15:50:18;;;;;;;7.57;6.70;;;;;;;;;;9487468;30;20057;-73
2023/05/21 15:55:12;;;;;;;10.65;7.32;;;;;;;;;;9500886;30;20525;-80
2023/05/21 16:00:09;;;;;;;8.18;7.22;;;;;;;;;;9498490;30;20388;-75
2023/05/21 16:05:05;;;;;;;12.10;7.03;;;;;;;;;;9495860;30;20519;-70
2023/05/21 16:09:58;;;;;;;17.52;7.32;;;;;;;;;;9497644;30;20057;-70
2023/05/21 16:14:52;;;;;;;11.40;6.75;;;;;;;;;;9495618;30;20062;-71
2023/05/21 16:19:46;;;;;;;11.73;6.07;;;;;;;;;;9503631;30;20056;-72
2023/05/21 16:24:39;;;;;;;8.43;7.47;;;;;;;;;;9499967;30;20052;-74
2023/05/21 16:29:34;;;;;;;9.25;6.18;;;;;;;;;;9501194;30;20052;-70
2023/05/21 16:34:33;;;;;;;8.45;6.97;;;;;;;;;;9507914;30;20075;-69
2023/05/21 16:39:26;;;;;;;8.63;6.57;;;;;;;;;;9502133;30;20113;-69
2023/05/21 16:44:20;;;;;;;8.07;6.82;;;;;;;;;;9499960;30;20044;-71
2023/05/21 16:49:13;;;;;;;10.00;6.45;;;;;;;;;;9495102;30;20056;-72
2023/05/21 16:54:05;;;;;;;9.23;6.82;;;;;;;;;;9502380;30;20063;-69
2023/05/21 16:59:00;;;;;;;12.05;6.95;;;;;;;;;;9493159;30;20058;-77
2023/05/21 17:03:54;;;;;;;8.27;6.75;;;;;;;;;;9514583;30;20052;-72
2023/05/21 17:08:49;;;;;;;8.57;6.45;;;;;;;;;;9515249;30;20052;-74
2023/05/21 17:13:46;;;;;;;9.27;6.13;;;;;;;;;;9511908;29;20448;-71
2023/05/21 17:18:40;;;;;;;10.50;6.87;;;;;;;;;;9496930;30;20056;-73
2023/05/21 17:23:34;;;;;;;13.40;6.60;;;;;;;;;;9497114;30;20127;-73
2023/05/21 17:28:28;;;;;;;14.80;7.00;;;;;;;;;;9508741;30;20087;-73
2023/05/21 17:33:22;;;;;;;16.77;7.20;;;;;;;;;;9507518;30;20129;-68
2023/05/21 17:38:16;;;;;;;77.43;69.38;;;;;;;;;;9506590;30;20129;-71
2023/05/21 17:43:10;;;;;;;14.95;12.82;;;;;;;;;;9506656;30;20087;-72
2023/05/21 17:48:04;;;;;;;11.02;7.47;;;;;;;;;;9485645;30;20087;-72
2023/05/21 17:52:58;;;;;;;8.63;7.25;;;;;;;;;;9483137;30;20073;-72
2023/05/21 17:57:53;;;;;;;8.40;6.78;;;;;;;;;;9492088;30;20175;-73
2023/05/21 18:02:49;;;;;;;18.20;6.38;;;;;;;;;;9489538;30;20109;-74
2023/05/21 18:07:44;;;;;;;16.80;9.13;;;;;;;;;;9491844;30;20048;-74
2023/05/21 18:12:39;;;;;;;11.63;10.20;;;;;;;;;;9499135;30;20072;-72
2023/05/21 18:17:34;;;;;;;9.00;8.10;;;;;;;;;;9496686;30;20052;-72
2023/05/21 18:22:27;;;;;;;17.38;9.50;;;;;;;;;;9491796;30;20493;-75
2023/05/21 18:27:20;;;;;;;9.40;7.20;;;;;;;;;;9497749;30;20105;-73
2023/05/21 18:32:15;;;;;;;8.50;6.97;;;;;;;;;;9496540;30;20068;-73
2023/05/21 18:37:10;;;;;;;11.32;7.25;;;;;;;;;;9496616;30;20142;-77
2023/05/21 18:42:05;;;;;;;9.75;7.63;;;;;;;;;;9496086;30;20454;-76
2023/05/21 18:47:06;;;;;;;8.25;6.63;;;;;;;;;;9495586;30;20139;-74
2023/05/21 18:51:59;;;;;;;13.10;7.72;;;;;;;;;;9493589;30;20117;-78
2023/05/21 18:56:53;;;;;;;15.30;8.43;;;;;;;;;;9493023;30;20064;-77
2023/05/21 19:01:48;;;;;;;11.60;8.88;;;;;;;;;;9503081;30;20493;-79
2023/05/21 19:06:41;;;;;;;9.75;8.20;;;;;;;;;;9495257;30;20056;-81
2023/05/21 19:11:36;;;;;;;13.38;8.05;;;;;;;;;;9493533;30;20509;-72
2023/05/21 19:16:29;;;;;;;10.68;8.70;;;;;;;;;;9504235;30;20094;-78
2023/05/21 19:21:24;;;;;;;9.75;8.05;;;;;;;;;;9493297;30;20513;-78
2023/05/21 19:26:21;;;;;;;11.57;9.13;;;;;;;;;;9505734;30;20083;-78
2023/05/21 19:31:14;;;;;;;9.98;8.98;;;;;;;;;;9517671;30;20091;-73
2023/05/21 19:36:08;;;;;;;9.82;8.40;;;;;;;;;;9504668;30;20127;-78
2023/05/21 19:41:02;;;;;;;10.60;8.68;;;;;;;;;;9502061;30;20105;-81
2023/05/21 19:45:55;;;;;;;9.80;8.77;;;;;;;;;;9517614;30;20052;-77
2023/05/21 19:50:50;;;;;;;9.95;8.63;;;;;;;;;;9502978;30;20056;-76
2023/05/21 19:55:44;;;;;;;10.15;9.15;;;;;;;;;;9504817;30;20117;-78
2023/05/21 20:00:39;;;;;;;13.73;10.57;;;;;;;;;;9498103;30;20060;-75
2023/05/21 20:05:32;;;;;;;13.68;10.15;;;;;;;;;;9484363;30;20060;-77
2023/05/21 20:10:26;;;;;;;13.98;9.65;;;;;;;;;;9490837;30;20067;-77
2023/05/21 20:15:20;;;;;;;9.98;9.13;;;;;;;;;;9488557;30;20126;-76
2023/05/21 20:20:15;;;;;;;15.23;9.82;;;;;;;;;;9484929;30;20053;-76
2023/05/21 20:25:09;;;;;;;10.88;9.82;;;;;;;;;;9495715;30;20063;-77
2023/05/21 20:30:03;;;;;;;12.27;10.15;;;;;;;;;;9494778;30;20064;-76
2023/05/21 20:34:57;;;;;;;24.63;10.45;;;;;;;;;;9514943;30;20428;-77
2023/05/21 20:39:56;;;;;;;10.95;9.30;;;;;;;;;;9492853;30;20091;-79
2023/05/21 20:44:51;;;;;;;10.68;9.48;;;;;;;;;;9489301;30;20509;-78
2023/05/21 20:49:45;;;;;;;12.75;10.27;;;;;;;;;;9487965;30;20468;-78
2023/05/21 20:54:41;;;;;;;15.77;10.40;;;;;;;;;;9498969;30;20060;-77
2023/05/21 20:59:35;;;;;;;12.18;10.18;;;;;;;;;;9499076;30;20177;-80
2023/05/21 21:04:29;;;;;;;14.40;10.30;;;;;;;;;;9496358;29;20463;-79
2023/05/21 21:09:22;;;;;;;10.52;9.45;;;;;;;;;;9497157;30;20135;-77
2023/05/21 21:14:15;;;;;;;12.75;10.32;;;;;;;;;;9497788;30;20505;-78
2023/05/21 21:19:09;;;;;;;12.52;10.68;;;;;;;;;;9487477;30;20501;-77
2023/05/21 21:24:05;;;;;;;14.13;11.55;;;;;;;;;;9500848;30;20056;-80
2023/05/21 21:28:58;;;;;;;12.90;10.98;;;;;;;;;;9500851;30;20087;-80
2023/05/21 21:33:51;;;;;;;16.83;14.00;;;;;;;;;;9507733;30;20126;-80
2023/05/21 21:38:47;;;;;;;14.60;11.35;;;;;;;;;;9509503;30;20408;-79
2023/05/21 21:43:40;;;;;;;13.48;11.20;;;;;;;;;;9508808;30;20062;-80
2023/05/21 21:48:34;;;;;;;15.38;11.48;;;;;;;;;;9509076;30;20126;-78
2023/05/21 21:53:27;;;;;;;13.80;11.77;;;;;;;;;;9521806;30;20091;-78
2023/05/21 21:58:21;;;;;;;11.77;10.68;;;;;;;;;;9483571;30;20413;-78
2023/05/21 22:03:15;;;;;;;15.85;10.30;;;;;;;;;;9507475;30;20114;-78
2023/05/21 22:08:10;;;;;;;12.40;10.52;;;;;;;;;;9504886;30;20060;-78
2023/05/21 22:13:04;;;;;;;11.38;10.25;;;;;;;;;;9470082;30;20122;-78
2023/05/21 22:18:03;;;;;;;14.85;10.80;;;;;;;;;;9492073;30;20052;-79
2023/05/21 22:22:59;;;;;;;14.00;10.55;;;;;;;;;;9474391;30;20041;-79
2023/05/21 22:27:52;;;;;;;11.93;9.98;;;;;;;;;;9507768;30;20083;-79
2023/05/21 22:32:47;;;;;;;14.90;12.15;;;;;;;;;;9477210;30;20064;-79
2023/05/21 22:37:40;;;;;;;12.95;11.57;;;;;;;;;;9500846;30;20088;-79
2023/05/21 22:42:33;;;;;;;12.57;10.65;;;;;;;;;;9502182;30;20536;-79
2023/05/21 22:47:27;;;;;;;11.95;10.38;;;;;;;;;;9481262;30;20065;-79
2023/05/21 22:52:21;;;;;;;14.10;11.35;;;;;;;;;;9494810;30;20164;-79
2023/05/21 22:57:15;;;;;;;12.52;11.30;;;;;;;;;;9482567;30;20630;-79
2023/05/21 23:02:09;;;;;;;12.13;10.98;;;;;;;;;;9503927;30;20063;-79
2023/05/21 23:07:03;;;;;;;12.43;11.13;;;;;;;;;;9481758;30;20056;-79
2023/05/21 23:11:56;;;;;;;11.82;10.48;;;;;;;;;;9480676;30;20056;-79
2023/05/21 23:16:52;;;;;;;12.68;10.27;;;;;;;;;;9498263;30;20572;-79
2023/05/21 23:21:46;;;;;;;14.18;11.65;;;;;;;;;;9495169;30;20432;-80
2023/05/21 23:26:39;;;;;;;13.60;12.20;;;;;;;;;;9481484;30;20106;-79
2023/05/21 23:31:33;;;;;;;17.50;12.75;;;;;;;;;;9503697;30;20071;-79
2023/05/21 23:36:27;;;;;;;14.50;13.02;;;;;;;;;;9500655;30;20064;-79
2023/05/21 23:41:22;;;;;;;16.67;12.90;;;;;;;;;;9487319;30;20084;-80
2023/05/21 23:46:16;;;;;;;17.83;12.43;;;;;;;;;;9497123;30;20147;-79
2023/05/21 23:51:10;;;;;;;14.52;12.32;;;;;;;;;;9499554;30;20060;-79
2023/05/21 23:56:05;;;;;;;13.93;12.52;;;;;;;;;;9477518;30;20059;-79
